Time;durP1;ratioP1;P1;durP2;ratioP2;P2;SDS_P1;SDS_P2;PMS_P1;PMS_P2;Temp;Humidity;BMP_temperature;BMP_pressure;BME280_temperature;BME280_humidity;BME280_pressure;Samples;Min_cycle;Max_cycle;Signal;HPM_P1;HPM_P2
2022/09/13 00:01:09;;;;;;;2.52;2.10;;;;;;;20.34;47.01;100922.31;1694365;83;21048;-53
2022/09/13 00:03:36;;;;;;;1.60;1.45;;;;;;;20.31;47.09;100921.66;1700560;83;21052;-53
2022/09/13 00:06:12;;;;;;;1.65;1.55;;;;;;;20.28;47.19;100922.68;1700783;83;21095;-55
2022/09/13 00:08:39;;;;;;;2.05;1.70;;;;;;;20.24;47.24;100918.52;1700648;84;21056;-53
2022/09/13 00:11:06;;;;;;;1.60;1.50;;;;;;;20.23;47.40;100914.19;1700530;83;21012;-53
2022/09/13 00:13:32;;;;;;;2.00;1.80;;;;;;;20.22;47.26;100915.98;1700858;84;21043;-54
2022/09/13 00:16:02;;;;;;;1.82;1.72;;;;;;;20.23;47.41;100911.09;1700510;83;21063;-52
2022/09/13 00:18:28;;;;;;;1.77;1.67;;;;;;;20.22;47.10;100914.66;1700655;83;21031;-55
2022/09/13 00:21:07;;;;;;;3.55;2.10;;;;;;;20.22;47.20;100912.48;1700461;83;21056;-59
2022/09/13 00:23:34;;;;;;;2.10;2.00;;;;;;;20.20;47.22;100909.08;1694053;84;20999;-53
2022/09/13 00:26:06;;;;;;;2.27;1.85;;;;;;;20.18;47.28;100901.67;1700683;84;21036;-58
2022/09/13 00:28:33;;;;;;;1.80;1.70;;;;;;;20.15;47.29;100905.84;1700279;83;21027;-57
2022/09/13 00:31:02;;;;;;;2.33;1.60;;;;;;;20.10;47.27;100906.56;1700493;84;21047;-52
2022/09/13 00:33:29;;;;;;;2.80;2.10;;;;;;;20.06;47.33;100901.08;1700457;83;21023;-53
2022/09/13 00:35:56;;;;;;;2.08;1.98;;;;;;;20.02;47.44;100894.27;1700760;84;21004;-54
2022/09/13 00:38:23;;;;;;;2.27;1.85;;;;;;;20.00;47.47;100892.19;1700693;84;21039;-55
2022/09/13 00:40:50;;;;;;;3.75;2.27;;;;;;;19.99;47.46;100891.83;1700505;83;21032;-52
2022/09/13 00:43:21;;;;;;;1.80;1.70;;;;;;;19.99;47.48;100889.19;1700540;83;21040;-53
2022/09/13 00:45:47;;;;;;;1.98;1.80;;;;;;;19.99;47.55;100893.15;1701093;83;21082;-55
2022/09/13 00:48:21;;;;;;;1.92;1.82;;;;;;;19.96;47.59;100892.85;1700399;83;21067;-53
2022/09/13 00:50:52;;;;;;;2.08;1.87;;;;;;;19.94;47.62;100889.91;1700718;83;20992;-57
2022/09/13 00:53:34;;;;;;;5.10;1.72;;;;;;;19.89;47.74;100884.03;1695514;83;20992;-57
2022/09/13 00:56:12;;;;;;;1.57;1.40;;;;;;;19.85;47.76;100880.73;1695738;83;20996;-53
2022/09/13 00:58:53;;;;;;;1.82;1.70;;;;;;;19.79;47.91;100880.22;1590572;89;21079;-53
2022/09/13 01:01:22;;;;;;;1.90;1.70;;;;;;;19.75;48.22;100878.23;1569397;90;21096;-52
2022/09/13 01:03:49;;;;;;;1.70;1.60;;;;;;;19.72;48.40;100878.89;1579443;90;21566;-53
2022/09/13 01:06:22;;;;;;;2.00;1.80;;;;;;;19.71;48.46;100873.22;1579392;90;21122;-54
2022/09/13 01:08:51;;;;;;;2.00;1.90;;;;;;;19.71;48.45;100876.72;1579509;90;21091;-54
2022/09/13 01:11:24;;;;;;;1.90;1.80;;;;;;;19.69;48.41;100869.81;1579547;90;21105;-55
2022/09/13 01:13:51;;;;;;;2.20;2.00;;;;;;;19.67;48.45;100866.41;1582004;90;21587;-53
2022/09/13 01:16:17;;;;;;;2.62;2.00;;;;;;;19.64;48.59;100868.75;1594300;89;21092;-58
2022/09/13 01:18:45;;;;;;;1.55;1.42;;;;;;;19.61;48.77;100870.27;1593367;89;21081;-59
2022/09/13 01:21:20;;;;;;;1.92;1.27;;;;;;;19.58;48.91;100864.31;1592817;89;21100;-57
2022/09/13 01:24:07;;;;;;;2.08;1.87;;;;;;;19.56;49.19;100870.16;1593226;89;21136;-52
2022/09/13 01:27:03;;;;;;;1.70;1.57;;;;;;;19.54;49.17;100866.75;1593399;89;21075;-58
2022/09/13 01:29:45;;;;;;;2.22;1.90;;;;;;;19.51;49.40;100869.09;1557280;91;21530;-55
2022/09/13 01:32:34;;;;;;;2.30;2.10;;;;;;;19.51;49.30;100858.98;1575799;90;21546;-57
2022/09/13 01:35:17;;;;;;;2.22;1.70;;;;;;;19.49;49.14;100858.59;1536139;93;21060;-52
2022/09/13 01:38:29;;;;;;;2.65;1.82;;;;;;;19.45;49.11;100862.34;1562521;90;21058;-57
2022/09/13 01:41:13;;;;;;;1.65;1.55;;;;;;;19.43;49.10;100872.13;1520286;93;21074;-52
2022/09/13 01:44:01;;;;;;;1.67;1.57;;;;;;;19.39;49.36;100873.73;1471184;97;21076;-52
2022/09/13 01:46:44;;;;;;;2.35;1.82;;;;;;;19.35;49.61;100874.36;1468758;97;21114;-55
2022/09/13 01:49:19;;;;;;;2.02;1.60;;;;;;;19.33;49.75;100870.95;1462962;97;21104;-53
2022/09/13 01:52:11;;;;;;;1.90;1.72;;;;;;;19.35;49.76;100868.25;1462083;97;21147;-57
2022/09/13 01:55:00;;;;;;;;;;;;;;;19.36;49.77;100869.94;1469663;96;21096;-54
2022/09/13 01:57:35;;;;;;;3.08;2.22;;;;;;;19.35;49.87;100874.36;1515692;92;20140;-57
2022/09/13 02:00:11;;;;;;;1.35;1.25;;;;;;;19.31;49.89;100863.56;1472214;96;21126;-55
2022/09/13 02:03:09;;;;;;;1.22;1.12;;;;;;;19.27;49.91;100857.22;1464282;97;21106;-55
2022/09/13 02:05:51;;;;;;;1.32;1.22;;;;;;;19.23;49.95;100864.45;1484048;95;21605;-55
2022/09/13 02:08:32;;;;;;;2.30;1.37;;;;;;;19.20;50.28;100855.88;1496960;95;21093;-54
2022/09/13 02:11:12;;;;;;;2.08;1.42;;;;;;;19.22;50.34;100849.58;1487648;95;21203;-52
2022/09/13 02:14:06;;;;;;;1.65;1.55;;;;;;;19.27;50.31;100848.84;1518708;94;21088;-57
2022/09/13 02:16:52;;;;;;;1.65;1.55;;;;;;;19.28;50.08;100854.52;1502555;95;21128;-53
2022/09/13 02:19:59;;;;;;;1.60;1.50;;;;;;;19.28;50.08;100857.16;1483127;96;21158;-54
2022/09/13 02:22:32;;;;;;;3.45;1.50;;;;;;;19.26;50.08;100852.89;1568559;91;21092;-53
2022/09/13 02:25:12;;;;;;;2.37;1.50;;;;;;;19.20;50.35;100840.91;1584616;90;21549;-55
2022/09/13 02:27:40;;;;;;;1.52;1.42;;;;;;;19.20;50.53;100842.22;1582934;90;21105;-54
2022/09/13 02:30:09;;;;;;;1.70;1.60;;;;;;;19.19;50.59;100835.23;1585815;90;21081;-57
2022/09/13 02:32:43;;;;;;;1.72;1.10;;;;;;;19.22;50.45;100836.39;1568865;91;21573;-54
2022/09/13 02:35:24;;;;;;;2.50;1.80;;;;;;;19.24;50.42;100841.11;1568006;91;21113;-53
2022/09/13 02:37:59;;;;;;;2.37;1.67;;;;;;;19.25;50.37;100835.34;1567957;90;21139;-61
2022/09/13 02:40:29;;;;;;;3.27;1.60;;;;;;;19.24;50.42;100837.16;1567898;91;21065;-54
2022/09/13 02:43:03;;;;;;;1.80;1.70;;;;;;;19.22;50.46;100833.75;1568209;91;21082;-61
2022/09/13 02:45:35;;;;;;;1.98;1.45;;;;;;;19.20;50.52;100836.95;1567813;91;21101;-53
2022/09/13 02:48:11;;;;;;;;;;;;;;;19.16;50.62;100838.52;1588700;90;21595;-56
2022/09/13 02:51:01;;;;;;;1.67;1.57;;;;;;;19.14;50.89;100835.97;1565164;91;20186;-54
2022/09/13 02:53:38;;;;;;;2.10;2.00;;;;;;;19.13;50.99;100834.25;1562485;91;21025;-55
2022/09/13 02:56:32;;;;;;;1.60;1.50;;;;;;;19.13;51.04;100834.25;1521252;91;21117;-52
2022/09/13 02:59:18;;;;;;;2.00;1.90;;;;;;;19.16;51.00;100835.88;1538346;91;21065;-53
2022/09/13 03:01:53;;;;;;;2.12;1.37;;;;;;;19.17;50.95;100837.56;1537656;92;21128;-52
2022/09/13 03:04:20;;;;;;;1.90;1.80;;;;;;;19.18;50.85;100832.69;1514997;94;21641;-52
2022/09/13 03:06:48;;;;;;;1.85;1.45;;;;;;;19.19;50.97;100836.55;1524897;94;21141;-53
2022/09/13 03:09:15;;;;;;;1.70;1.60;;;;;;;19.20;50.88;100835.62;1524777;94;21085;-52
2022/09/13 03:12:15;;;;;;;1.90;1.75;;;;;;;19.21;50.85;100829.39;1524666;93;21074;-52
2022/09/13 03:15:05;;;;;;;1.75;1.65;;;;;;;19.21;51.01;100829.39;1524716;93;21097;-52
2022/09/13 03:17:57;;;;;;;2.08;1.87;;;;;;;19.17;51.14;100827.87;1465458;98;21102;-53
2022/09/13 03:20:47;;;;;;;1.35;1.25;;;;;;;19.13;51.29;100827.66;1467129;96;21118;-53
2022/09/13 03:23:54;;;;;;;1.60;1.50;;;;;;;19.11;51.25;100830.85;1446609;97;21157;-53
2022/09/13 03:27:04;;;;;;;3.35;1.85;;;;;;;19.08;51.50;100825.73;1443306;97;21194;-53
2022/09/13 03:30:03;;;;;;;2.80;1.77;;;;;;;19.09;51.44;100828.77;1441535;99;21087;-52
2022/09/13 03:32:41;;;;;;;1.90;1.80;;;;;;;19.06;51.61;100824.97;1441343;97;21094;-56
2022/09/13 03:35:26;;;;;;;1.92;1.82;;;;;;;19.05;51.63;100827.23;1365954;102;21156;-55
2022/09/13 03:38:13;;;;;;;2.22;1.90;;;;;;;19.07;51.53;100829.78;1333042;106;21181;-55
2022/09/13 03:40:58;;;;;;;2.05;1.85;;;;;;;19.09;51.64;100834.50;1340211;106;21649;-58
2022/09/13 03:43:44;;;;;;;2.00;1.70;;;;;;;19.10;51.63;100826.49;1319068;108;21153;-53
2022/09/13 03:46:24;;;;;;;3.65;2.15;;;;;;;19.11;51.67;100828.67;1304944;109;21203;-54
2022/09/13 03:48:50;;;;;;;1.98;1.80;;;;;;;19.12;51.62;100831.25;1336735;107;21630;-57
2022/09/13 03:51:17;;;;;;;2.20;2.00;;;;;;;19.14;51.69;100833.80;1351704;105;21239;-54
2022/09/13 03:53:47;;;;;;;2.15;1.75;;;;;;;19.14;51.70;100832.02;1347648;102;21178;-55
2022/09/13 03:56:16;;;;;;;1.82;1.72;;;;;;;19.16;51.71;100829.28;1416983;100;21103;-51
2022/09/13 03:58:42;;;;;;;2.00;1.90;;;;;;;19.17;51.72;100833.14;1417066;98;21730;-53
2022/09/13 04:01:09;;;;;;;2.12;1.92;;;;;;;19.19;51.64;100833.91;1439468;98;21156;-55
2022/09/13 04:03:39;;;;;;;2.10;2.00;;;;;;;19.22;51.59;100835.07;1439715;98;21218;-51
2022/09/13 04:06:07;;;;;;;2.35;2.10;;;;;;;19.23;51.47;100834.12;1439532;98;21638;-54
2022/09/13 04:08:34;;;;;;;2.02;1.90;;;;;;;19.24;51.45;100837.16;1491011;95;21549;-52
2022/09/13 04:11:00;;;;;;;2.05;1.85;;;;;;;19.25;51.46;100829.61;1500003;95;21203;-53
2022/09/13 04:13:28;;;;;;;1.95;1.85;;;;;;;19.25;51.59;100838.84;1593064;89;21113;-53
2022/09/13 04:15:55;;;;;;;2.58;2.37;;;;;;;19.26;51.67;100828.69;1618779;87;21509;-54
2022/09/13 04:18:23;;;;;;;2.50;2.30;;;;;;;19.27;51.69;100827.73;1613669;87;21048;-58
2022/09/13 04:20:55;;;;;;;2.60;2.40;;;;;;;19.29;51.76;100832.45;1620872;87;21024;-51
2022/09/13 04:23:23;;;;;;;2.60;2.37;;;;;;;19.30;51.67;100836.81;1571971;91;21101;-52
2022/09/13 04:28:18;;;;;;;2.37;2.17;;;;;;;19.23;51.49;100834.12;1500347;94;21622;-53
2022/09/13 04:30:46;;;;;;;1.82;1.72;;;;;;;19.21;51.80;100829.86;1500629;94;21098;-51
2022/09/13 04:33:13;;;;;;;2.60;2.40;;;;;;;19.22;51.95;100833.75;1516174;94;21620;-55
2022/09/13 04:35:40;;;;;;;2.98;2.40;;;;;;;19.26;52.12;100831.33;1500696;94;21111;-55
2022/09/13 04:38:07;;;;;;;2.67;2.40;;;;;;;19.30;51.94;100836.81;1516103;93;21128;-52
2022/09/13 04:40:36;;;;;;;2.40;2.10;;;;;;;19.32;52.08;100838.89;1527049;91;21088;-51
2022/09/13 04:43:03;;;;;;;2.20;2.00;;;;;;;19.34;52.01;100832.23;1544054;92;21570;-55
2022/09/13 04:45:30;;;;;;;2.47;2.27;;;;;;;19.36;52.12;100825.94;1557523;92;21110;-52
2022/09/13 04:47:57;;;;;;;2.62;2.42;;;;;;;19.39;52.11;100820.47;1557184;91;21087;-52
2022/09/13 04:50:24;;;;;;;3.45;2.60;;;;;;;19.41;52.05;100825.19;1557474;92;21613;-51
2022/09/13 04:52:55;;;;;;;2.60;2.40;;;;;;;19.42;52.09;100822.95;1557248;91;21061;-52
2022/09/13 04:55:24;;;;;;;3.22;2.90;;;;;;;19.44;52.06;100823.71;1538982;92;21102;-51
2022/09/13 04:57:55;;;;;;;2.83;2.55;;;;;;;19.44;52.05;100823.71;1519690;93;21216;-56
2022/09/13 05:00:23;;;;;;;;;;;;;;;19.43;52.17;100831.23;1531149;93;21090;-54
2022/09/13 05:02:55;;;;;;;2.12;2.02;;;;;;;19.41;52.04;100831.78;1528727;93;20539;-59
2022/09/13 05:05:24;;;;;;;1.98;1.87;;;;;;;19.36;52.08;100825.94;1528923;93;21074;-53
2022/09/13 05:07:51;;;;;;;2.12;1.92;;;;;;;19.36;52.31;100830.36;1528959;93;21046;-56
2022/09/13 05:10:46;;;;;;;1.98;1.87;;;;;;;19.41;52.24;100825.69;1500442;96;21229;-52
2022/09/13 05:13:15;;;;;;;1.57;1.45;;;;;;;19.45;52.18;100836.45;1529392;93;21118;-52
2022/09/13 05:15:42;;;;;;;0.65;0.60;;;;;;;19.51;51.86;100835.23;1534026;93;21824;-53
2022/09/13 05:18:08;;;;;;;2.55;0.50;;;;;;;19.53;50.80;100837.31;1533371;93;21058;-54
2022/09/13 05:20:35;;;;;;;0.40;0.40;;;;;;;19.52;50.12;100846.16;1534434;93;21153;-52
2022/09/13 05:23:02;;;;;;;0.40;0.40;;;;;;;19.52;50.02;100838.24;1544278;93;21577;-53
2022/09/13 05:25:28;;;;;;;0.30;0.30;;;;;;;19.52;49.88;100844.84;1570216;90;21565;-52
2022/09/13 05:27:55;;;;;;;0.50;0.50;;;;;;;19.51;49.59;100847.11;1584507;90;21166;-57
2022/09/13 05:30:22;;;;;;;0.40;0.33;;;;;;;19.46;49.85;100850.86;1584467;90;21057;-52
2022/09/13 05:32:48;;;;;;;0.33;0.33;;;;;;;19.48;49.91;100848.98;1584560;90;21565;-52
2022/09/13 05:35:15;;;;;;;0.30;0.23;;;;;;;19.49;49.92;100849.36;1584326;90;21105;-52
2022/09/13 05:37:42;;;;;;;0.20;0.20;;;;;;;19.50;49.81;100846.25;1584273;90;21072;-54
2022/09/13 05:40:09;;;;;;;0.47;0.33;;;;;;;19.52;49.74;100854.08;1584507;90;21116;-59
2022/09/13 05:42:37;;;;;;;0.50;0.45;;;;;;;19.49;49.63;100851.99;1584737;90;21040;-54
2022/09/13 05:45:06;;;;;;;0.25;0.20;;;;;;;19.50;49.35;100851.53;1584532;90;21541;-51
2022/09/13 05:47:33;;;;;;;0.20;0.20;;;;;;;19.48;49.21;100859.55;1584583;90;21545;-59
2022/09/13 05:50:00;;;;;;;0.20;0.20;;;;;;;19.49;48.77;100860.41;1584563;90;21057;-54
2022/09/13 05:52:26;;;;;;;0.50;0.28;;;;;;;19.47;48.87;100864.42;1652145;85;21106;-53
2022/09/13 05:54:53;;;;;;;0.28;0.28;;;;;;;19.52;49.22;100863.31;1694870;85;21085;-52
2022/09/13 05:57:20;;;;;;;0.23;0.23;;;;;;;19.58;48.72;100866.95;1695315;85;21492;-54
2022/09/13 05:59:46;;;;;;;1.40;0.40;;;;;;;19.63;48.54;100864.89;1695099;85;21016;-52
2022/09/13 06:02:13;;;;;;;0.42;0.20;;;;;;;19.69;48.14;100871.13;1692272;85;21107;-54
2022/09/13 06:04:40;;;;;;;0.20;0.20;;;;;;;19.74;48.07;100865.13;1694678;85;21054;-53
2022/09/13 06:07:10;;;;;;;0.20;0.20;;;;;;;19.78;47.93;100865.34;1694977;84;21058;-54
2022/09/13 06:09:37;;;;;;;0.20;0.20;;;;;;;19.83;47.97;100867.22;1685683;84;21067;-54
2022/09/13 06:12:04;;;;;;;0.60;0.40;;;;;;;19.87;47.69;100863.46;1676930;85;21059;-52
2022/09/13 06:14:32;;;;;;;0.30;0.30;;;;;;;19.87;47.48;100863.46;1677121;85;21539;-55
2022/09/13 06:17:00;;;;;;;0.23;0.20;;;;;;;19.87;47.57;100866.10;1677468;85;21020;-53
2022/09/13 06:19:27;;;;;;;0.53;0.40;;;;;;;19.91;47.58;100864.98;1677091;85;21153;-56
2022/09/13 06:21:54;;;;;;;0.30;0.30;;;;;;;19.95;47.58;100873.11;1677383;85;21008;-52
2022/09/13 06:24:20;;;;;;;0.72;0.20;;;;;;;19.99;47.31;100871.52;1676894;85;21056;-51
2022/09/13 06:26:47;;;;;;;0.93;0.30;;;;;;;20.04;47.40;100871.26;1677349;85;21519;-56
2022/09/13 06:29:13;;;;;;;0.35;0.30;;;;;;;20.09;47.17;100874.00;1677127;85;21076;-53
2022/09/13 06:31:43;;;;;;;0.37;0.37;;;;;;;20.16;47.11;100875.36;1665150;85;21044;-53
2022/09/13 06:34:11;;;;;;;0.53;0.40;;;;;;;20.23;46.90;100874.56;1677116;85;21047;-53
2022/09/13 06:36:38;;;;;;;0.40;0.30;;;;;;;20.32;46.96;100873.16;1677538;85;21048;-54
2022/09/13 06:39:05;;;;;;;4.62;0.35;;;;;;;20.36;46.95;100875.50;1677287;85;21059;-53
2022/09/13 06:41:32;;;;;;;0.45;0.40;;;;;;;20.39;47.02;100872.69;1674483;85;21055;-59
2022/09/13 06:44:00;;;;;;;1.17;0.40;;;;;;;20.41;47.36;100870.81;1677342;85;21047;-56
2022/09/13 06:46:30;;;;;;;0.20;0.20;;;;;;;20.46;47.34;100874.50;1677289;85;21024;-52
2022/09/13 06:49:03;;;;;;;0.30;0.30;;;;;;;20.52;46.63;100876.30;1601599;89;21109;-55
2022/09/13 06:51:30;;;;;;;1.17;0.78;;;;;;;20.58;46.38;100875.08;1569920;91;21170;-53
2022/09/13 06:53:56;;;;;;;0.30;0.30;;;;;;;20.61;46.45;100877.55;1569854;91;21564;-52
2022/09/13 06:56:31;;;;;;;0.40;0.40;;;;;;;20.60;46.36;100876.69;1569778;91;21138;-52
2022/09/13 06:58:59;;;;;;;2.52;0.45;;;;;;;20.60;46.47;100884.63;1569860;91;21069;-57
2022/09/13 07:01:29;;;;;;;0.50;0.42;;;;;;;20.61;46.74;100886.30;1569927;91;21032;-59
2022/09/13 07:04:06;;;;;;;0.20;0.20;;;;;;;20.58;46.86;100886.51;1531287;94;21142;-59
2022/09/13 07:06:35;;;;;;;0.50;0.50;;;;;;;20.56;46.82;100885.75;1492538;96;21187;-54
2022/09/13 07:09:04;;;;;;;0.40;0.40;;;;;;;20.50;46.53;100886.12;1479660;97;21149;-53
2022/09/13 07:11:36;;;;;;;0.60;0.40;;;;;;;20.46;46.56;100889.90;1509518;95;21178;-53
2022/09/13 07:14:05;;;;;;;0.60;0.40;;;;;;;20.47;47.02;100890.72;1509308;95;21554;-55
2022/09/13 07:16:34;;;;;;;0.53;0.50;;;;;;;20.52;47.09;100899.23;1509206;95;21641;-54
2022/09/13 07:19:06;;;;;;;1.75;0.53;;;;;;;20.57;46.23;100888.75;1509371;95;21618;-53
2022/09/13 07:21:34;;;;;;;0.45;0.40;;;;;;;20.60;46.16;100889.91;1509284;95;21118;-59
2022/09/13 07:24:03;;;;;;;0.40;0.40;;;;;;;20.63;46.24;100894.16;1508991;93;21181;-54
2022/09/13 07:26:30;;;;;;;0.50;0.50;;;;;;;20.65;45.87;100893.10;1509341;95;21061;-52
2022/09/13 07:28:59;;;;;;;0.30;0.30;;;;;;;20.66;45.66;100888.20;1509205;95;21138;-54
2022/09/13 07:31:32;;;;;;;0.85;0.55;;;;;;;20.69;45.86;100892.47;1509149;95;21097;-55
2022/09/13 07:34:01;;;;;;;0.78;0.33;;;;;;;20.72;45.44;100895.77;1485843;96;21187;-54
2022/09/13 07:36:30;;;;;;;0.80;0.42;;;;;;;20.75;45.19;100893.41;1485759;97;21093;-54
2022/09/13 07:38:57;;;;;;;1.20;0.40;;;;;;;20.77;45.51;100892.34;1485868;97;21104;-52
2022/09/13 07:41:25;;;;;;;1.07;0.40;;;;;;;20.78;45.46;100898.03;1476511;97;21093;-52
2022/09/13 07:43:52;;;;;;;0.40;0.30;;;;;;;20.79;45.37;100902.36;1485814;97;21160;-57
2022/09/13 07:46:22;;;;;;;0.50;0.50;;;;;;;20.80;44.86;100897.46;1491805;96;21633;-53
2022/09/13 07:48:48;;;;;;;0.40;0.30;;;;;;;20.81;44.71;100892.53;1525896;93;21057;-52
2022/09/13 07:51:24;;;;;;;0.50;0.33;;;;;;;20.82;44.93;100897.36;1537890;93;21113;-53
2022/09/13 07:53:54;;;;;;;0.42;0.42;;;;;;;20.82;44.67;100897.36;1534678;93;21065;-56
2022/09/13 07:56:23;;;;;;;0.40;0.40;;;;;;;20.80;45.04;100894.81;1538043;93;21530;-59
2022/09/13 07:58:50;;;;;;;0.65;0.65;;;;;;;20.80;44.88;100897.46;1538128;93;21097;-53
2022/09/13 08:01:21;;;;;;;0.80;0.50;;;;;;;20.80;45.00;100893.50;1564822;91;21051;-55
2022/09/13 08:03:57;;;;;;;0.70;0.50;;;;;;;20.80;44.90;100898.78;1519149;94;21069;-54
2022/09/13 08:06:25;;;;;;;0.68;0.40;;;;;;;20.81;44.97;100897.83;1513603;94;21110;-53
2022/09/13 08:08:51;;;;;;;0.55;0.45;;;;;;;20.82;44.34;100888.96;1514556;93;21140;-53
2022/09/13 08:11:22;;;;;;;0.57;0.50;;;;;;;20.80;44.31;100881.59;1481465;96;21206;-53
2022/09/13 08:13:50;;;;;;;0.42;0.30;;;;;;;20.82;45.05;100885.00;1471383;97;21432;-54
2022/09/13 08:16:21;;;;;;;0.65;0.60;;;;;;;20.84;44.47;100882.25;1471726;97;21137;-59
2022/09/13 08:18:49;;;;;;;0.50;0.50;;;;;;;20.83;44.67;100877.45;1464373;97;21079;-53
2022/09/13 08:21:16;;;;;;;0.62;0.50;;;;;;;20.82;44.25;100875.73;1470783;97;21084;-53
2022/09/13 08:23:43;;;;;;;0.55;0.50;;;;;;;20.82;44.43;100873.56;1473452;97;21085;-53
2022/09/13 08:26:09;;;;;;;0.40;0.40;;;;;;;20.81;44.17;100872.70;1461640;97;21660;-53
2022/09/13 08:28:39;;;;;;;1.42;0.85;;;;;;;20.85;44.20;100890.11;1472781;97;21088;-53
2022/09/13 08:31:08;;;;;;;0.57;0.47;;;;;;;20.90;44.48;100874.78;1470072;97;21100;-53
2022/09/13 08:33:34;;;;;;;0.40;0.40;;;;;;;20.94;43.94;100868.82;1474582;97;21114;-54
2022/09/13 08:36:02;;;;;;;0.90;0.50;;;;;;;20.97;43.97;100873.47;1472842;97;21573;-53
2022/09/13 08:38:29;;;;;;;0.40;0.40;;;;;;;21.00;43.81;100875.91;1494262;95;21054;-54
2022/09/13 08:41:04;;;;;;;0.62;0.50;;;;;;;21.01;43.82;100872.80;1494119;95;21585;-54
2022/09/13 08:43:52;;;;;;;0.45;0.45;;;;;;;20.99;43.87;100868.94;1486677;95;21125;-53
2022/09/13 08:46:38;;;;;;;0.50;0.50;;;;;;;21.01;43.84;100861.75;1495240;95;21145;-52
2022/09/13 08:49:09;;;;;;;0.50;0.50;;;;;;;20.99;43.53;100867.61;1493961;95;21066;-58
2022/09/13 08:51:43;;;;;;;1.75;0.55;;;;;;;20.99;44.04;100858.81;1466548;97;21171;-55
2022/09/13 08:54:15;;;;;;;0.93;0.65;;;;;;;21.00;44.28;100867.97;1457203;98;21153;-54
2022/09/13 08:57:14;;;;;;;0.75;0.70;;;;;;;21.02;44.02;100855.52;1419624;100;21137;-54
2022/09/13 09:00:17;;;;;;;0.60;0.60;;;;;;;21.05;44.13;100859.31;1358189;103;21676;-55
2022/09/13 09:03:04;;;;;;;0.42;0.42;;;;;;;21.11;43.61;100859.86;1368552;103;21178;-55
2022/09/13 09:05:34;;;;;;;0.68;0.60;;;;;;;21.19;43.85;100861.54;1383028;103;21690;-56
2022/09/13 09:08:05;;;;;;;0.82;0.82;;;;;;;21.27;43.59;100864.08;1372010;103;21155;-56
2022/09/13 09:10:47;;;;;;;0.60;0.60;;;;;;;21.33;43.51;100866.83;1389981;100;21707;-54
2022/09/13 09:13:55;;;;;;;0.50;0.50;;;;;;;21.37;43.67;100866.50;1410411;100;21138;-53
2022/09/13 09:16:42;;;;;;;2.72;0.80;;;;;;;21.45;43.54;100866.03;1410115;100;21158;-59
2022/09/13 09:19:23;;;;;;;0.57;0.47;;;;;;;21.51;43.35;100872.25;1410545;102;21185;-53
2022/09/13 09:21:50;;;;;;;0.68;0.57;;;;;;;21.54;43.52;100874.22;1390260;102;21203;-53
2022/09/13 09:24:23;;;;;;;1.27;0.60;;;;;;;21.52;43.84;100869.96;1389593;102;21397;-55
2022/09/13 09:26:50;;;;;;;3.50;0.80;;;;;;;21.48;43.63;100870.64;1389615;102;21150;-53
2022/09/13 09:29:20;;;;;;;1.70;0.65;;;;;;;21.44;42.96;100864.31;1408889;99;21649;-54
2022/09/13 09:32:08;;;;;;;3.92;0.60;;;;;;;21.39;42.85;100863.78;1405458;101;21149;-55
2022/09/13 09:35:11;;;;;;;0.50;0.50;;;;;;;21.36;42.43;100866.61;1418565;100;21135;-56
2022/09/13 09:37:38;;;;;;;0.60;0.60;;;;;;;21.33;42.47;100870.80;1428350;99;21648;-53
2022/09/13 09:40:09;;;;;;;0.70;0.70;;;;;;;21.31;42.73;100858.14;1435571;99;21130;-61
2022/09/13 09:42:46;;;;;;;2.02;0.60;;;;;;;21.31;42.55;100863.43;1436597;98;21088;-55
2022/09/13 09:45:32;;;;;;;0.80;0.50;;;;;;;21.24;42.65;100856.35;1436767;99;21138;-58
2022/09/13 09:48:06;;;;;;;1.75;0.70;;;;;;;21.22;42.70;100860.03;1448967;97;21088;-56
2022/09/13 09:50:37;;;;;;;0.93;0.60;;;;;;;21.23;42.46;100857.75;1465320;96;21127;-58
2022/09/13 09:53:13;;;;;;;1.17;0.50;;;;;;;21.26;42.85;100865.51;1460426;97;21127;-56
2022/09/13 09:55:59;;;;;;;1.45;1.00;;;;;;;21.32;42.68;100863.32;1469127;97;21596;-53
2022/09/13 09:58:38;;;;;;;0.65;0.60;;;;;;;21.36;43.14;100861.31;1498451;92;21091;-54
2022/09/13 10:01:05;;;;;;;0.68;0.68;;;;;;;21.38;43.31;100864.72;1536440;92;21528;-53
2022/09/13 10:03:32;;;;;;;2.52;1.22;;;;;;;21.37;43.33;100868.33;1540021;92;21087;-55
2022/09/13 10:06:21;;;;;;;0.78;0.60;;;;;;;21.38;43.68;100866.04;1534367;92;21051;-53
2022/09/13 10:08:59;;;;;;;0.60;0.50;;;;;;;21.39;43.98;100869.08;1527600;92;21075;-56
2022/09/13 10:11:46;;;;;;;1.50;0.40;;;;;;;21.46;44.10;100867.71;1534667;92;21691;-56
2022/09/13 10:14:41;;;;;;;0.85;0.42;;;;;;;21.50;43.65;100874.51;1437609;99;21128;-55
2022/09/13 10:17:26;;;;;;;1.20;0.40;;;;;;;21.55;43.31;100871.10;1448181;99;21151;-54
2022/09/13 10:20:00;;;;;;;0.50;0.50;;;;;;;21.59;42.95;100875.25;1438134;99;21078;-55
2022/09/13 10:22:30;;;;;;;0.47;0.45;;;;;;;21.63;42.90;100870.13;1428540;100;21155;-56
2022/09/13 10:25:24;;;;;;;0.50;0.30;;;;;;;21.67;43.16;100875.13;1425925;100;21145;-55
2022/09/13 10:27:56;;;;;;;0.68;0.60;;;;;;;21.72;42.66;100877.48;1418248;99;21618;-54
2022/09/13 10:30:37;;;;;;;;;;;;;;;21.78;42.44;100869.12;1431362;98;21101;-56
2022/09/13 10:33:04;;;;;;;0.53;0.30;;;;;;;21.85;42.35;100869.11;1434314;100;20133;-56
2022/09/13 10:35:30;;;;;;;2.00;0.60;;;;;;;21.89;41.85;100867.95;1428104;100;21114;-54
2022/09/13 10:37:57;;;;;;;0.60;0.40;;;;;;;21.94;42.18;100878.25;1428492;100;21162;-57
2022/09/13 10:40:38;;;;;;;0.45;0.45;;;;;;;21.96;42.50;100875.02;1425851;100;21224;-56
2022/09/13 10:43:08;;;;;;;1.42;0.50;;;;;;;21.99;42.34;100870.36;1429226;99;21183;-54
2022/09/13 10:45:37;;;;;;;1.07;0.62;;;;;;;22.05;42.09;100863.81;1451337;97;21106;-54
2022/09/13 10:48:07;;;;;;;0.50;0.50;;;;;;;22.07;42.43;100863.23;1425278;99;21186;-60
2022/09/13 10:50:35;;;;;;;0.40;0.40;;;;;;;22.10;42.33;100866.98;1455154;97;21165;-55
2022/09/13 10:53:03;;;;;;;0.50;0.45;;;;;;;22.10;42.04;100870.50;1431245;99;21598;-54
2022/09/13 10:58:12;;;;;;;0.30;0.30;;;;;;;22.11;41.51;100868.70;1377431;103;21186;-54
2022/09/13 11:00:59;;;;;;;2.62;0.50;;;;;;;22.11;41.53;100871.35;1414820;100;21145;-54
2022/09/13 11:03:56;;;;;;;0.40;0.35;;;;;;;22.11;41.87;100868.23;1428529;100;21119;-54
2022/09/13 11:06:53;;;;;;;0.70;0.50;;;;;;;22.13;41.93;100866.80;1493251;93;21098;-56
2022/09/13 11:09:34;;;;;;;0.37;0.37;;;;;;;22.16;41.20;100862.12;1497031;95;21677;-54
2022/09/13 11:12:21;;;;;;;0.42;0.40;;;;;;;22.16;41.29;100861.27;1541021;92;21073;-54
2022/09/13 11:15:17;;;;;;;0.40;0.40;;;;;;;22.13;41.73;100859.70;1548291;92;21065;-56
2022/09/13 11:18:15;;;;;;;0.30;0.30;;;;;;;22.13;42.13;100861.03;1559326;92;21549;-54
2022/09/13 11:21:20;;;;;;;4.20;0.55;;;;;;;22.16;41.85;100857.30;1547778;92;21085;-57
2022/09/13 11:24:13;;;;;;;0.50;0.50;;;;;;;22.21;42.03;100856.05;1530740;93;21071;-54
2022/09/13 11:26:54;;;;;;;0.65;0.30;;;;;;;22.32;41.89;100859.27;1545846;92;21066;-54
2022/09/13 11:29:35;;;;;;;2.97;0.50;;;;;;;22.41;41.81;100856.00;1528551;93;21123;-54
2022/09/13 11:32:34;;;;;;;0.33;0.33;;;;;;;22.48;41.54;100851.98;1528686;93;21574;-55
2022/09/13 11:35:45;;;;;;;0.80;0.50;;;;;;;22.50;41.20;100852.22;1539090;92;21113;-55
2022/09/13 11:38:35;;;;;;;0.98;0.60;;;;;;;22.51;40.89;100851.28;1504996;94;21123;-56
2022/09/13 11:41:27;;;;;;;0.98;0.60;;;;;;;22.49;41.24;100855.84;1539373;92;21084;-57
2022/09/13 11:44:18;;;;;;;1.05;0.57;;;;;;;22.47;41.62;100852.45;1500075;94;21110;-54
2022/09/13 11:47:29;;;;;;;0.75;0.60;;;;;;;22.39;40.89;100854.78;1543454;92;21104;-59
2022/09/13 11:50:43;;;;;;;0.55;0.53;;;;;;;22.30;41.20;100854.08;1498379;94;21171;-54
2022/09/13 11:53:32;;;;;;;1.35;0.80;;;;;;;22.24;41.40;100847.02;1535163;92;21172;-52
2022/09/13 11:56:01;;;;;;;0.60;0.60;;;;;;;22.18;41.79;100845.64;1494752;94;21100;-55
2022/09/13 11:58:35;;;;;;;0.78;0.57;;;;;;;22.08;41.85;100853.85;1517596;93;21120;-56
2022/09/13 12:01:06;;;;;;;0.60;0.60;;;;;;;22.04;42.03;100847.06;1518267;93;21123;-55
2022/09/13 12:03:41;;;;;;;0.50;0.50;;;;;;;22.06;41.58;100852.25;1551586;91;21077;-57
2022/09/13 12:06:27;;;;;;;0.98;0.53;;;;;;;22.08;41.37;100845.91;1566219;90;21587;-57